createdAt,value
2023-02-26T00:00:12.399Z,98585.81
2023-02-26T00:03:01.955Z,98605.69
2023-02-26T00:05:29.241Z,98624.31
2023-02-26T00:07:56.135Z,98605.94
2023-02-26T00:10:23.283Z,98594.25
2023-02-26T00:12:50.310Z,98576.63
2023-02-26T00:15:18.441Z,98573.16
2023-02-26T00:18:04.099Z,98593.28
2023-02-26T00:20:31.459Z,98630.03
2023-02-26T00:22:58.512Z,98627.31
2023-02-26T00:25:27.994Z,98635.75
2023-02-26T00:27:55.080Z,98650.66
2023-02-26T00:30:22.739Z,98659.13
2023-02-26T00:32:50.279Z,98652.44
2023-02-26T00:35:19.836Z,98644.97
2023-02-26T00:37:59.162Z,98652.44
2023-02-26T00:40:45.995Z,98657.91
2023-02-26T00:43:16.194Z,98654.41
2023-02-26T00:46:02.192Z,98649.44
2023-02-26T00:48:38.254Z,98643.97
2023-02-26T00:51:12.525Z,98621.84
2023-02-26T00:53:44.899Z,98614.16
2023-02-26T00:56:12.078Z,98594.00
2023-02-26T00:58:38.956Z,98599.94
2023-02-26T01:01:09.188Z,98599.47
2023-02-26T01:03:36.871Z,98596.72
2023-02-26T01:06:04.413Z,98585.03
2023-02-26T01:08:33.299Z,98589.72
2023-02-26T01:11:00.650Z,98588.00
2023-02-26T01:13:27.595Z,98597.41
2023-02-26T01:16:02.167Z,98585.72
2023-02-26T01:18:33.472Z,98582.97
2023-02-26T01:21:04.409Z,98582.72
2023-02-26T01:23:38.905Z,98585.19
2023-02-26T01:26:10.753Z,98574.50
2023-02-26T01:28:37.884Z,98591.88
2023-02-26T01:31:11.115Z,98597.78
2023-02-26T01:33:44.506Z,98604.28
2023-02-26T01:36:21.391Z,98606.75
2023-02-26T01:38:54.275Z,98601.50
2023-02-26T01:41:24.947Z,98606.22
2023-02-26T01:43:57.401Z,98611.44
2023-02-26T01:46:36.952Z,98623.56
2023-02-26T01:49:05.265Z,98622.38
2023-02-26T01:51:38.665Z,98606.44
2023-02-26T01:54:06.007Z,98616.63
2023-02-26T01:56:33.572Z,98624.56
2023-02-26T01:59:05.859Z,98626.03
2023-02-26T02:01:33.570Z,98625.06
2023-02-26T02:04:00.762Z,98622.31
2023-02-26T02:06:29.652Z,98610.38
2023-02-26T02:08:56.696Z,98614.88
2023-02-26T02:11:24.139Z,98609.16
2023-02-26T02:14:00.320Z,98625.03
2023-02-26T02:16:48.294Z,98631.19
2023-02-26T02:19:33.961Z,98648.78
2023-02-26T02:22:07.827Z,98654.47
2023-02-26T02:24:49.236Z,98654.00
2023-02-26T02:27:24.143Z,98663.16
2023-02-26T02:29:51.120Z,98652.50
2023-02-26T02:32:36.990Z,98644.31
2023-02-26T02:35:04.425Z,98650.50
2023-02-26T02:37:38.313Z,98656.22
2023-02-26T02:40:11.741Z,98648.50
2023-02-26T02:42:52.452Z,98654.91
2023-02-26T02:45:28.684Z,98657.88
2023-02-26T02:48:01.960Z,98653.66
2023-02-26T02:50:49.693Z,98674.75
2023-02-26T02:53:26.310Z,98672.50
2023-02-26T02:56:09.034Z,98679.19
2023-02-26T02:58:39.722Z,98690.38
2023-02-26T03:01:11.521Z,98682.19
2023-02-26T03:03:38.742Z,98687.88
2023-02-26T03:06:09.169Z,98694.88
2023-02-26T03:08:41.496Z,98676.97
2023-02-26T03:11:09.556Z,98674.00
2023-02-26T03:13:37.960Z,98679.47
2023-02-26T03:16:13.873Z,98680.94
2023-02-26T03:18:53.410Z,98666.78
2023-02-26T03:21:26.509Z,98695.56
2023-02-26T03:23:56.814Z,98714.41
2023-02-26T03:26:23.736Z,98721.09
2023-02-26T03:28:54.782Z,98722.09
2023-02-26T03:31:27.261Z,98724.56
2023-02-26T03:33:58.049Z,98720.13
2023-02-26T03:36:37.993Z,98720.13
2023-02-26T03:39:28.441Z,98709.91
2023-02-26T03:41:58.996Z,98709.44
2023-02-26T03:44:32.421Z,98718.31
2023-02-26T03:47:03.012Z,98732.25
2023-02-26T03:49:33.216Z,98746.09
2023-02-26T03:52:01.623Z,98743.88
2023-02-26T03:55:08.793Z,98757.53
2023-02-26T03:58:04.759Z,98761.50
2023-02-26T04:00:59.367Z,98745.59
2023-02-26T04:03:33.731Z,98757.25
2023-02-26T04:06:01.353Z,98755.75
2023-02-26T04:08:29.060Z,98761.72
2023-02-26T04:11:07.143Z,98765.19
2023-02-26T04:13:36.404Z,98770.88
2023-02-26T04:16:04.858Z,98781.03
2023-02-26T04:18:31.788Z,98778.28
2023-02-26T04:20:59.102Z,98777.06
2023-02-26T04:23:26.940Z,98790.41
2023-02-26T04:25:54.229Z,98802.84
2023-02-26T04:28:21.282Z,98800.13
2023-02-26T04:30:49.217Z,98795.88
2023-02-26T04:33:16.805Z,98817.91
2023-02-26T04:35:44.128Z,98817.19
2023-02-26T04:38:13.481Z,98812.94
2023-02-26T04:40:40.767Z,98811.44
2023-02-26T04:43:10.952Z,98808.72
2023-02-26T04:45:47.112Z,98811.94
2023-02-26T04:48:14.572Z,98822.56
2023-02-26T04:50:42.128Z,98826.06
2023-02-26T04:53:09.236Z,98822.28
2023-02-26T04:55:37.952Z,98827.19
2023-02-26T04:58:05.880Z,98826.69
2023-02-26T05:00:35.747Z,98831.38
2023-02-26T05:03:03.475Z,98834.09
2023-02-26T05:05:30.917Z,98831.78
2023-02-26T05:07:57.946Z,98820.13
2023-02-26T05:10:25.660Z,98818.84
2023-02-26T05:12:52.687Z,98829.97
2023-02-26T05:15:20.012Z,98833.16
2023-02-26T05:17:46.902Z,98829.41
2023-02-26T05:20:15.538Z,98844.00
2023-02-26T05:22:43.105Z,98847.47
2023-02-26T05:25:14.197Z,98839.78
2023-02-26T05:27:42.587Z,98845.44
2023-02-26T05:30:12.276Z,98850.69
2023-02-26T05:32:39.452Z,98855.38
2023-02-26T05:35:06.935Z,98859.31
2023-02-26T05:37:36.447Z,98861.78
2023-02-26T05:40:04.603Z,98864.78
2023-02-26T05:42:31.654Z,98873.72
2023-02-26T05:44:58.762Z,98874.19
2023-02-26T05:47:25.687Z,98878.16
2023-02-26T05:49:53.039Z,98887.34
2023-02-26T05:52:19.994Z,98888.09
2023-02-26T05:54:47.154Z,98896.75
2023-02-26T05:57:13.954Z,98900.69
2023-02-26T05:59:41.143Z,98909.44
2023-02-26T06:02:08.016Z,98917.31
2023-02-26T06:04:37.609Z,98918.56
2023-02-26T06:07:04.406Z,98914.88
2023-02-26T06:09:34.624Z,98925.78
2023-02-26T06:12:01.494Z,98921.09
2023-02-26T06:14:28.793Z,98929.53
2023-02-26T06:16:55.670Z,98931.84
2023-02-26T06:19:23.098Z,98934.59
2023-02-26T06:21:49.994Z,98944.28
2023-02-26T06:24:17.245Z,98943.31
2023-02-26T06:26:46.409Z,98945.78
2023-02-26T06:29:13.589Z,98945.84
2023-02-26T06:31:40.508Z,98949.72
2023-02-26T06:34:07.687Z,98957.78
2023-02-26T06:36:34.538Z,98953.84
2023-02-26T06:39:01.750Z,98950.53
2023-02-26T06:41:28.728Z,98957.03
2023-02-26T06:43:55.991Z,98961.00
2023-02-26T06:46:23.050Z,98955.06
2023-02-26T06:48:50.312Z,98959.56
2023-02-26T06:51:17.305Z,98969.22
2023-02-26T06:53:44.466Z,98968.50
2023-02-26T06:56:11.365Z,98967.00
2023-02-26T06:58:38.721Z,98977.03
2023-02-26T07:01:05.670Z,98966.38
2023-02-26T07:03:32.888Z,98972.88
2023-02-26T07:06:18.767Z,98971.16
2023-02-26T07:08:47.247Z,98975.13
2023-02-26T07:11:14.790Z,98976.69
2023-02-26T07:13:42.051Z,98983.47
2023-02-26T07:16:08.966Z,98991.66
2023-02-26T07:18:39.161Z,99002.69
2023-02-26T07:21:06.101Z,99001.34
2023-02-26T07:23:35.610Z,99008.22
2023-02-26T07:26:02.778Z,99014.56
2023-02-26T07:28:30.045Z,99015.69
2023-02-26T07:30:57.613Z,99017.88
2023-02-26T07:33:26.639Z,99021.47
2023-02-26T07:35:53.543Z,99023.34
2023-02-26T07:38:20.988Z,99019.63
2023-02-26T07:40:48.310Z,99021.00
2023-02-26T07:43:15.566Z,99019.69
2023-02-26T07:45:45.419Z,99030.72
2023-02-26T07:48:12.603Z,99035.94
2023-02-26T07:50:39.462Z,99040.00
2023-02-26T07:53:06.734Z,99039.94
2023-02-26T07:55:33.587Z,99039.56
2023-02-26T07:58:02.834Z,99040.97
2023-02-26T08:00:29.837Z,99042.47
2023-02-26T08:02:57.008Z,99055.28
2023-02-26T08:05:24.006Z,99061.56
2023-02-26T08:07:51.257Z,99064.66
2023-02-26T08:10:18.156Z,99059.69
2023-02-26T08:12:45.390Z,99076.34
2023-02-26T08:15:14.455Z,99069.13
2023-02-26T08:17:41.977Z,99076.13
2023-02-26T08:20:09.274Z,99078.31
2023-02-26T08:22:36.429Z,99077.00
2023-02-26T08:25:03.459Z,99088.16
2023-02-26T08:27:30.611Z,99105.91
2023-02-26T08:29:57.574Z,99105.28
2023-02-26T08:32:27.019Z,99103.88
2023-02-26T08:34:54.226Z,99118.44
2023-02-26T08:37:24.305Z,99117.19
2023-02-26T08:39:51.651Z,99122.81
2023-02-26T08:42:20.591Z,99121.59
2023-02-26T08:44:47.763Z,99121.34
2023-02-26T08:47:19.164Z,99131.78
2023-02-26T08:49:51.465Z,99138.81
2023-02-26T08:52:18.647Z,99129.59
2023-02-26T08:54:45.484Z,99130.63
2023-02-26T08:57:12.800Z,99145.53
2023-02-26T08:59:39.681Z,99149.28
2023-02-26T09:02:06.909Z,99151.69
2023-02-26T09:04:33.808Z,99157.91
2023-02-26T09:07:03.650Z,99158.66
2023-02-26T09:09:30.523Z,99158.72
2023-02-26T09:11:59.077Z,99164.72
2023-02-26T09:14:25.910Z,99171.50
2023-02-26T09:16:53.159Z,99180.69
2023-02-26T09:19:20.044Z,99177.00
2023-02-26T09:21:47.252Z,99176.66
2023-02-26T09:24:14.813Z,99190.41
2023-02-26T09:26:44.630Z,99199.25
2023-02-26T09:29:13.357Z,99192.25
2023-02-26T09:31:40.806Z,99195.25
2023-02-26T09:34:09.828Z,99198.84
2023-02-26T09:36:37.631Z,99196.88
2023-02-26T09:39:04.700Z,99189.56
2023-02-26T09:41:34.667Z,99190.44
2023-02-26T09:44:04.681Z,99187.28
2023-02-26T09:46:31.910Z,99184.75
2023-02-26T09:49:11.073Z,99178.50
2023-02-26T09:51:38.633Z,99186.00
2023-02-26T09:54:20.163Z,99195.25
2023-02-26T09:56:48.195Z,99200.03
2023-02-26T09:59:15.056Z,99199.53
2023-02-26T10:02:08.673Z,99208.28
2023-02-26T10:04:41.698Z,99203.78
2023-02-26T10:07:33.751Z,99210.22
2023-02-26T10:10:00.669Z,99214.97
2023-02-26T10:12:29.437Z,99221.50
2023-02-26T10:15:12.167Z,99232.75
2023-02-26T10:17:47.097Z,99229.91
2023-02-26T10:20:17.254Z,99236.16
2023-02-26T10:22:56.482Z,99234.88
2023-02-26T10:25:25.917Z,99239.50
2023-02-26T10:28:01.769Z,99251.09
2023-02-26T10:30:35.771Z,99253.59
2023-02-26T10:33:03.078Z,99245.63
2023-02-26T10:35:33.173Z,99246.13
2023-02-26T10:38:05.668Z,99235.47
2023-02-26T10:40:43.251Z,99241.19
2023-02-26T10:43:13.565Z,99244.38
2023-02-26T10:45:59.573Z,99261.53
2023-02-26T10:48:30.115Z,99257.22
2023-02-26T10:50:58.713Z,99253.38
2023-02-26T10:53:27.074Z,99258.38
2023-02-26T10:55:57.291Z,99268.44
2023-02-26T10:58:25.711Z,99266.25
2023-02-26T11:00:53.994Z,99262.22
2023-02-26T11:03:28.675Z,99266.41
2023-02-26T11:05:58.030Z,99283.69
2023-02-26T11:08:27.158Z,99289.56
2023-02-26T11:10:55.830Z,99275.19
2023-02-26T11:13:24.129Z,99276.09
2023-02-26T11:15:52.604Z,99274.16
2023-02-26T11:18:28.655Z,99275.31
2023-02-26T11:21:00.226Z,99274.09
2023-02-26T11:23:31.106Z,99275.75
2023-02-26T11:26:02.595Z,99279.25
2023-02-26T11:28:38.577Z,99283.47
2023-02-26T11:31:07.282Z,99294.59
2023-02-26T11:33:37.629Z,99296.72
2023-02-26T11:36:08.323Z,99298.75
2023-02-26T11:38:36.500Z,99304.34
2023-02-26T11:41:05.241Z,99310.34
2023-02-26T11:43:44.382Z,99313.44
2023-02-26T11:46:13.107Z,99314.88
2023-02-26T11:48:45.362Z,99304.69
2023-02-26T11:51:16.532Z,99308.50
2023-02-26T11:53:49.273Z,99314.81
2023-02-26T11:56:24.445Z,99301.75
2023-02-26T11:58:55.248Z,99296.56
2023-02-26T12:01:27.383Z,99296.69
2023-02-26T12:04:02.710Z,99292.69
2023-02-26T12:06:30.571Z,99298.25
2023-02-26T12:08:58.592Z,99314.59
2023-02-26T12:11:41.273Z,99311.69
2023-02-26T12:14:17.817Z,99307.41
2023-02-26T12:17:00.352Z,99312.16
2023-02-26T12:19:57.891Z,99304.00
2023-02-26T12:22:27.177Z,99307.56
2023-02-26T12:25:09.443Z,99308.56
2023-02-26T12:27:37.017Z,99305.63
2023-02-26T12:30:27.348Z,99312.97
2023-02-26T12:33:09.937Z,99315.03
2023-02-26T12:35:57.924Z,99323.88
2023-02-26T12:38:31.272Z,99326.75
2023-02-26T12:41:04.918Z,99319.09
2023-02-26T12:43:49.999Z,99309.44
2023-02-26T12:46:36.125Z,99313.25
2023-02-26T12:49:09.794Z,99323.69
2023-02-26T12:51:37.751Z,99311.91
2023-02-26T12:54:14.174Z,99316.81
2023-02-26T12:56:41.816Z,99321.31
2023-02-26T12:59:12.342Z,99321.00
2023-02-26T13:02:00.919Z,99327.63
2023-02-26T13:04:42.613Z,99332.91
2023-02-26T13:07:10.740Z,99322.16
2023-02-26T13:10:04.250Z,99331.53
2023-02-26T13:12:35.130Z,99350.13
2023-02-26T13:15:29.084Z,99355.25
2023-02-26T13:17:59.440Z,99335.16
2023-02-26T13:20:28.128Z,99334.75
2023-02-26T13:23:04.040Z,99371.03
2023-02-26T13:25:34.087Z,99365.41
2023-02-26T13:28:07.852Z,99366.22
2023-02-26T13:30:39.787Z,99373.47
2023-02-26T13:33:17.012Z,99364.72
2023-02-26T13:35:46.454Z,99380.44
2023-02-26T13:38:18.938Z,99392.91
2023-02-26T13:40:52.088Z,99377.69
2023-02-26T13:43:26.036Z,99386.41
2023-02-26T13:46:06.074Z,99389.06
2023-02-26T13:48:49.080Z,99394.41
2023-02-26T13:51:30.543Z,99395.63
2023-02-26T13:54:00.228Z,99388.09
2023-02-26T13:56:33.702Z,99394.53
2023-02-26T13:59:01.506Z,99388.66
2023-02-26T14:01:32.667Z,99405.22
2023-02-26T14:04:10.856Z,99401.22
2023-02-26T14:06:44.077Z,99401.66
2023-02-26T14:09:18.569Z,99398.41
2023-02-26T14:11:47.905Z,99394.13
2023-02-26T14:14:22.151Z,99406.72
2023-02-26T14:16:53.534Z,99418.09
2023-02-26T14:19:23.959Z,99409.09
2023-02-26T14:22:02.370Z,99412.00
2023-02-26T14:24:44.411Z,99410.69
2023-02-26T14:27:14.170Z,99404.66
2023-02-26T14:29:43.395Z,99394.59
2023-02-26T14:32:10.891Z,99412.72
2023-02-26T14:34:45.717Z,99404.63
2023-02-26T14:37:15.600Z,99400.94
2023-02-26T14:39:51.388Z,99413.38
2023-02-26T14:42:21.870Z,99409.78
2023-02-26T14:44:59.082Z,99419.78
2023-02-26T14:47:27.859Z,99421.16
2023-02-26T14:50:01.005Z,99424.97
2023-02-26T14:52:31.701Z,99450.25
2023-02-26T14:55:12.494Z,99439.16
2023-02-26T14:58:06.720Z,99436.13
2023-02-26T15:00:37.662Z,99437.09
2023-02-26T15:03:20.917Z,99447.00
2023-02-26T15:06:29.027Z,99458.59
2023-02-26T15:09:03.606Z,99463.41
2023-02-26T15:11:50.200Z,99467.94
2023-02-26T15:14:18.124Z,99473.03
2023-02-26T15:16:48.629Z,99478.19
2023-02-26T15:19:39.327Z,99472.53
2023-02-26T15:22:22.678Z,99478.00
2023-02-26T15:24:53.582Z,99474.22
2023-02-26T15:27:21.817Z,99475.47
2023-02-26T15:29:52.497Z,99479.69
2023-02-26T15:32:26.446Z,99477.81
2023-02-26T15:34:57.217Z,99475.00
2023-02-26T15:37:33.916Z,99475.00
2023-02-26T15:40:05.455Z,99479.22
2023-02-26T15:42:39.020Z,99473.31
2023-02-26T15:45:13.175Z,99470.28
2023-02-26T15:47:42.665Z,99467.75
2023-02-26T15:50:15.171Z,99474.41
2023-02-26T15:52:44.884Z,99476.13
2023-02-26T15:55:16.727Z,99483.69
2023-02-26T15:57:44.747Z,99489.63
2023-02-26T16:00:25.773Z,99509.72
2023-02-26T16:02:54.928Z,99503.69
2023-02-26T16:05:22.786Z,99500.84
2023-02-26T16:07:53.102Z,99520.44
2023-02-26T16:10:39.994Z,99526.88
2023-02-26T16:13:13.167Z,99539.97
2023-02-26T16:15:43.439Z,99545.59
2023-02-26T16:18:15.608Z,99551.56
2023-02-26T16:20:47.809Z,99546.75
2023-02-26T16:23:18.798Z,99547.22
2023-02-26T16:25:54.906Z,99544.38
2023-02-26T16:28:24.463Z,99552.28
2023-02-26T16:30:54.474Z,99549.16
2023-02-26T16:33:24.223Z,99556.03
2023-02-26T16:36:10.727Z,99552.72
2023-02-26T16:39:00.034Z,99552.81
2023-02-26T16:41:30.375Z,99550.69
2023-02-26T16:44:01.707Z,99554.66
2023-02-26T16:46:29.639Z,99562.56
2023-02-26T16:49:21.154Z,99570.75
2023-02-26T16:51:49.635Z,99583.94
2023-02-26T16:54:29.072Z,99594.84
2023-02-26T16:57:03.991Z,99604.63
2023-02-26T16:59:32.987Z,99600.84
2023-02-26T17:02:21.230Z,99606.59
2023-02-26T17:05:06.794Z,99609.63
2023-02-26T17:07:35.504Z,99618.13
2023-02-26T17:10:17.606Z,99622.97
2023-02-26T17:12:50.445Z,99630.88
2023-02-26T17:15:27.383Z,99636.81
2023-02-26T17:17:58.773Z,99641.63
2023-02-26T17:20:30.106Z,99657.28
2023-02-26T17:23:02.673Z,99659.38
2023-02-26T17:25:34.842Z,99663.91
2023-02-26T17:28:03.665Z,99674.25
2023-02-26T17:30:33.680Z,99676.97
2023-02-26T17:33:03.970Z,99673.50
2023-02-26T17:35:34.470Z,99679.41
2023-02-26T17:38:02.587Z,99671.97
2023-02-26T17:40:37.033Z,99677.13
2023-02-26T17:43:09.617Z,99674.09
2023-02-26T17:45:39.717Z,99678.84
2023-02-26T17:48:08.469Z,99676.56
2023-02-26T17:50:48.084Z,99682.38
2023-02-26T17:53:16.963Z,99675.66
2023-02-26T17:55:47.807Z,99687.06
2023-02-26T17:58:18.076Z,99694.66
2023-02-26T18:00:50.316Z,99695.28
2023-02-26T18:03:19.816Z,99700.44
2023-02-26T18:05:48.658Z,99705.91
2023-02-26T18:08:20.209Z,99695.91
2023-02-26T18:10:49.235Z,99703.97
2023-02-26T18:13:17.581Z,99702.63
2023-02-26T18:15:45.898Z,99702.31
2023-02-26T18:18:15.986Z,99700.97
2023-02-26T18:20:46.639Z,99707.97
2023-02-26T18:23:17.862Z,99704.94
2023-02-26T18:25:47.777Z,99708.59
2023-02-26T18:28:18.133Z,99709.34
2023-02-26T18:30:46.778Z,99716.63
2023-02-26T18:33:17.697Z,99710.00
2023-02-26T18:35:47.774Z,99715.75
2023-02-26T18:38:19.704Z,99724.41
2023-02-26T18:40:48.334Z,99722.59
2023-02-26T18:43:17.060Z,99725.59
2023-02-26T18:45:46.748Z,99722.72
2023-02-26T18:48:19.430Z,99721.97
2023-02-26T18:50:50.071Z,99719.09
2023-02-26T18:53:24.230Z,99725.59
2023-02-26T18:55:53.788Z,99723.94
2023-02-26T18:58:23.570Z,99719.97
2023-02-26T19:00:54.845Z,99728.16
2023-02-26T19:03:23.800Z,99717.53
2023-02-26T19:05:58.937Z,99724.50
2023-02-26T19:08:27.626Z,99724.81
2023-02-26T19:10:56.314Z,99733.13
2023-02-26T19:13:29.559Z,99730.88
2023-02-26T19:15:58.290Z,99738.75
2023-02-26T19:18:26.699Z,99737.09
2023-02-26T19:20:55.646Z,99741.78
2023-02-26T19:23:23.822Z,99738.34
2023-02-26T19:25:52.747Z,99754.25
2023-02-26T19:28:21.761Z,99745.91
2023-02-26T19:30:50.437Z,99752.41
2023-02-26T19:33:20.888Z,99752.41
2023-02-26T19:35:50.797Z,99758.47
2023-02-26T19:38:21.382Z,99761.03
2023-02-26T19:40:52.706Z,99762.41
2023-02-26T19:43:21.005Z,99770.44
2023-02-26T19:45:55.911Z,99773.47
2023-02-26T19:48:24.488Z,99770.59
2023-02-26T19:50:55.690Z,99771.47
2023-02-26T19:53:24.560Z,99777.69
2023-02-26T19:55:56.546Z,99779.50
2023-02-26T19:58:27.235Z,99773.31
2023-02-26T20:00:55.644Z,99785.88
2023-02-26T20:03:25.795Z,99776.94
2023-02-26T20:05:55.201Z,99780.88
2023-02-26T20:08:26.902Z,99786.78
2023-02-26T20:10:57.557Z,99789.06
2023-02-26T20:13:30.339Z,99786.94
2023-02-26T20:16:01.487Z,99793.59
2023-02-26T20:18:31.643Z,99800.44
2023-02-26T20:21:01.617Z,99814.19
2023-02-26T20:23:30.236Z,99819.50
2023-02-26T20:25:59.352Z,99826.03
2023-02-26T20:28:29.455Z,99831.66
2023-02-26T20:30:59.284Z,99833.47
2023-02-26T20:33:27.951Z,99837.28
2023-02-26T20:35:56.695Z,99832.56
2023-02-26T20:38:28.440Z,99838.16
2023-02-26T20:40:57.245Z,99832.72
2023-02-26T20:43:25.755Z,99836.66
2023-02-26T20:45:57.276Z,99840.13
2023-02-26T20:48:24.945Z,99846.66
2023-02-26T20:50:55.016Z,99843.16
2023-02-26T20:53:25.224Z,99844.41
2023-02-26T20:55:56.532Z,99847.75
2023-02-26T20:58:24.802Z,99845.44
2023-02-26T21:00:57.661Z,99846.22
2023-02-26T21:03:26.101Z,99853.34
2023-02-26T21:05:54.723Z,99848.16
2023-02-26T21:08:24.076Z,99850.91
2023-02-26T21:10:52.324Z,99849.69
2023-02-26T21:13:20.304Z,99852.44
2023-02-26T21:15:50.517Z,99850.31
2023-02-26T21:18:18.395Z,99853.34
2023-02-26T21:20:46.399Z,99858.03
2023-02-26T21:23:14.046Z,99860.63
2023-02-26T21:25:42.289Z,99873.34
2023-02-26T21:28:09.850Z,99863.06
2023-02-26T21:30:39.503Z,99879.44
2023-02-26T21:33:09.513Z,99872.44
2023-02-26T21:35:37.708Z,99874.84
2023-02-26T21:38:05.188Z,99876.38
2023-02-26T21:40:38.566Z,99876.69
2023-02-26T21:43:05.878Z,99874.44
2023-02-26T21:45:36.275Z,99882.63
2023-02-26T21:48:04.627Z,99881.09
2023-02-26T21:50:34.017Z,99881.09
2023-02-26T21:53:03.346Z,99879.72
2023-02-26T21:55:31.591Z,99878.97
2023-02-26T21:57:58.658Z,99881.53
2023-02-26T22:00:26.288Z,99885.47
2023-02-26T22:02:53.238Z,99887.56
2023-02-26T22:05:20.979Z,99887.25
2023-02-26T22:07:47.961Z,99891.81
2023-02-26T22:10:15.184Z,99886.50
2023-02-26T22:12:42.716Z,99889.38
2023-02-26T22:15:10.177Z,99887.69
2023-02-26T22:17:37.253Z,99896.03
2023-02-26T22:20:10.130Z,99898.00
2023-02-26T22:22:40.436Z,99901.94
2023-02-26T22:25:11.817Z,99897.25
2023-02-26T22:27:39.576Z,99901.94
2023-02-26T22:30:07.625Z,99898.16
2023-02-26T22:32:34.618Z,99902.06
2023-02-26T22:35:01.891Z,99896.63
2023-02-26T22:37:28.888Z,99909.63
2023-02-26T22:39:56.745Z,99907.34
2023-02-26T22:42:24.237Z,99909.34
2023-02-26T22:44:51.525Z,99908.69
2023-02-26T22:47:18.425Z,99908.38
2023-02-26T22:49:46.284Z,99922.66
2023-02-26T22:52:14.083Z,99926.56
2023-02-26T22:54:41.338Z,99927.47
2023-02-26T22:57:08.772Z,99929.13
2023-02-26T22:59:35.916Z,99947.13
2023-02-26T23:02:02.853Z,99940.03
2023-02-26T23:04:30.199Z,99938.19
2023-02-26T23:06:57.160Z,99941.69
2023-02-26T23:09:24.561Z,99944.09
2023-02-26T23:11:51.517Z,99947.28
2023-02-26T23:14:19.068Z,99944.88
2023-02-26T23:16:46.013Z,99936.19
2023-02-26T23:19:13.239Z,99937.09
2023-02-26T23:21:40.146Z,99951.63
2023-02-26T23:24:07.338Z,99951.63
2023-02-26T23:26:34.212Z,99954.63
2023-02-26T23:29:01.880Z,99953.53
2023-02-26T23:31:29.119Z,99962.59
2023-02-26T23:33:56.604Z,99964.38
2023-02-26T23:36:23.455Z,99954.81
2023-02-26T23:38:50.679Z,99965.41
2023-02-26T23:41:20.017Z,99962.03
2023-02-26T23:43:47.205Z,99967.16
2023-02-26T23:46:14.413Z,99964.75
2023-02-26T23:48:41.599Z,99966.16
2023-02-26T23:51:08.912Z,99963.13
2023-02-26T23:53:36.019Z,99962.34
2023-02-26T23:56:02.880Z,99968.25
2023-02-26T23:58:30.625Z,99974.84
